createdAt,value
2023-05-12T00:03:35.730Z,100.00
2023-05-12T00:08:25.385Z,100.00
2023-05-12T00:13:15.124Z,100.00
2023-05-12T00:18:07.880Z,100.00
2023-05-12T00:22:57.566Z,100.00
2023-05-12T00:27:47.719Z,100.00
2023-05-12T00:32:37.829Z,100.00
2023-05-12T00:37:30.024Z,100.00
2023-05-12T00:42:19.940Z,100.00
2023-05-12T00:47:12.601Z,100.00
2023-05-12T00:52:02.724Z,100.00
2023-05-12T00:56:56.279Z,100.00
2023-05-12T01:01:51.091Z,100.00
2023-05-12T01:06:51.213Z,100.00
2023-05-12T01:11:41.479Z,100.00
2023-05-12T01:16:36.832Z,100.00
2023-05-12T01:21:26.484Z,100.00
2023-05-12T01:26:22.503Z,100.00
2023-05-12T01:31:12.974Z,100.00
2023-05-12T01:36:03.116Z,100.00
2023-05-12T01:40:52.730Z,100.00
2023-05-12T01:45:45.793Z,100.00
2023-05-12T01:50:36.171Z,100.00
2023-05-12T01:55:31.422Z,100.00
2023-05-12T02:00:21.951Z,100.00
2023-05-12T02:05:17.706Z,100.00
2023-05-12T02:10:11.538Z,100.00
2023-05-12T02:15:01.355Z,100.00
2023-05-12T02:19:52.857Z,100.00
2023-05-12T02:24:45.110Z,100.00
2023-05-12T02:29:38.280Z,100.00
2023-05-12T02:34:29.437Z,100.00
2023-05-12T02:39:19.843Z,100.00
2023-05-12T02:44:12.551Z,100.00
2023-05-12T02:49:02.364Z,100.00
2023-05-12T02:53:52.370Z,100.00
2023-05-12T02:58:41.999Z,100.00
2023-05-12T03:03:34.671Z,100.00
2023-05-12T03:08:24.515Z,100.00
2023-05-12T03:13:14.216Z,100.00
2023-05-12T03:18:04.040Z,100.00
2023-05-12T03:22:56.994Z,100.00
2023-05-12T03:27:46.777Z,100.00
2023-05-12T03:32:39.348Z,100.00
2023-05-12T03:37:32.934Z,100.00
2023-05-12T03:42:27.032Z,100.00
2023-05-12T03:47:17.329Z,100.00
2023-05-12T03:52:08.970Z,100.00
2023-05-12T03:56:58.902Z,100.00
2023-05-12T04:01:51.601Z,100.00
2023-05-12T04:06:41.945Z,100.00
2023-05-12T04:11:34.615Z,100.00
2023-05-12T04:16:24.526Z,100.00
2023-05-12T04:21:17.073Z,100.00
2023-05-12T04:26:07.832Z,100.00
2023-05-12T04:30:58.840Z,100.00
2023-05-12T04:35:49.261Z,100.00
2023-05-12T04:40:42.075Z,100.00
2023-05-12T04:45:32.064Z,100.00
2023-05-12T04:50:22.012Z,100.00
2023-05-12T04:55:17.405Z,100.00
2023-05-12T05:00:17.623Z,100.00
2023-05-12T05:05:09.978Z,100.00
2023-05-12T05:09:59.791Z,100.00
2023-05-12T05:14:54.309Z,100.00
2023-05-12T05:19:57.840Z,100.00
2023-05-12T05:24:53.230Z,100.00
2023-05-12T05:30:30.378Z,100.00
2023-05-12T05:36:08.269Z,100.00
2023-05-12T05:41:31.256Z,100.00
2023-05-12T05:46:28.187Z,100.00
2023-05-12T05:51:29.549Z,100.00
2023-05-12T05:56:19.506Z,100.00
2023-05-12T06:01:17.222Z,100.00
2023-05-12T06:06:10.330Z,100.00
2023-05-12T06:11:02.692Z,100.00
2023-05-12T06:15:52.851Z,100.00
2023-05-12T06:20:42.782Z,100.00
2023-05-12T06:25:33.453Z,100.00
2023-05-12T06:30:27.113Z,100.00
2023-05-12T06:35:18.129Z,100.00
2023-05-12T06:40:08.799Z,100.00
2023-05-12T06:44:58.436Z,100.00
2023-05-12T06:49:50.715Z,100.00
2023-05-12T06:54:40.831Z,100.00
2023-05-12T06:59:31.055Z,100.00
2023-05-12T07:04:21.776Z,100.00
2023-05-12T07:09:14.422Z,100.00
2023-05-12T07:14:04.019Z,100.00
2023-05-12T07:18:53.718Z,100.00
2023-05-12T07:23:43.504Z,100.00
2023-05-12T07:28:36.825Z,100.00
2023-05-12T07:33:26.414Z,100.00
2023-05-12T07:38:16.216Z,100.00
2023-05-12T07:43:06.863Z,100.00
2023-05-12T07:47:59.251Z,100.00
2023-05-12T07:52:49.824Z,100.00
2023-05-12T07:57:39.393Z,100.00
2023-05-12T08:02:30.545Z,100.00
2023-05-12T08:07:23.697Z,100.00
2023-05-12T08:12:14.368Z,100.00
2023-05-12T08:17:05.389Z,100.00
2023-05-12T08:21:55.168Z,100.00
2023-05-12T08:26:48.557Z,100.00
2023-05-12T08:31:38.335Z,100.00
2023-05-12T08:36:28.065Z,100.00
2023-05-12T08:41:19.517Z,100.00
2023-05-12T08:46:15.944Z,100.00
2023-05-12T08:51:06.845Z,100.00
2023-05-12T08:57:09.120Z,100.00
2023-05-12T09:01:12.360Z,100.00
2023-05-12T09:06:05.019Z,100.00
2023-05-12T09:10:54.758Z,100.00
2023-05-12T09:15:45.661Z,100.00
2023-05-12T09:20:38.174Z,100.00
2023-05-12T09:25:30.472Z,100.00
2023-05-12T09:30:20.160Z,100.00
2023-05-12T09:35:11.474Z,100.00
2023-05-12T09:40:04.911Z,100.00
2023-05-12T09:44:57.552Z,100.00
2023-05-12T09:49:49.852Z,100.00
2023-05-12T09:54:43.910Z,95.96
2023-05-12T09:59:36.311Z,100.00
2023-05-12T10:04:29.524Z,100.00
2023-05-12T10:09:23.665Z,100.00
2023-05-12T10:14:13.824Z,100.00
2023-05-12T10:19:04.674Z,100.00
2023-05-12T10:23:58.059Z,98.28
2023-05-12T10:28:51.196Z,100.00
2023-05-12T10:33:41.444Z,100.00
2023-05-12T10:38:39.754Z,99.17
2023-05-12T10:43:41.637Z,91.52
2023-05-12T10:48:31.535Z,84.90
2023-05-12T10:53:48.363Z,84.97
2023-05-12T10:59:12.685Z,84.52
2023-05-12T11:04:13.658Z,86.72
2023-05-12T11:09:05.069Z,93.89
2023-05-12T11:13:58.515Z,91.99
2023-05-12T11:18:50.317Z,90.74
2023-05-12T11:23:40.256Z,87.96
2023-05-12T11:28:31.321Z,87.31
2023-05-12T11:33:26.266Z,86.50
2023-05-12T11:38:18.939Z,87.05
2023-05-12T11:43:12.949Z,85.86
2023-05-12T11:48:12.025Z,82.35
2023-05-12T11:53:04.977Z,83.84
2023-05-12T11:58:02.914Z,76.06
2023-05-12T12:02:52.795Z,83.17
2023-05-12T12:07:42.927Z,83.79
2023-05-12T12:12:35.514Z,83.26
2023-05-12T12:17:30.999Z,83.67
2023-05-12T12:22:20.936Z,83.67
2023-05-12T12:27:10.804Z,83.63
2023-05-12T12:32:03.493Z,82.76
2023-05-12T12:36:53.348Z,81.07
2023-05-12T12:41:44.265Z,79.92
2023-05-12T12:46:34.194Z,79.54
2023-05-12T12:51:38.485Z,77.24
2023-05-12T12:56:35.057Z,76.83
2023-05-12T13:01:25.073Z,65.73
2023-05-12T13:06:14.828Z,65.48
2023-05-12T13:11:09.118Z,67.97
2023-05-12T13:15:58.883Z,67.92
2023-05-12T13:20:48.686Z,67.23
2023-05-12T13:25:38.357Z,74.86
2023-05-12T13:30:30.800Z,72.71
2023-05-12T13:35:20.699Z,67.58
2023-05-12T13:40:14.059Z,64.93
2023-05-12T13:45:04.614Z,63.93
2023-05-12T13:49:57.485Z,64.75
2023-05-12T13:54:46.964Z,65.19
2023-05-12T13:59:36.435Z,69.75
2023-05-12T14:04:26.134Z,65.56
2023-05-12T14:09:18.321Z,63.73
2023-05-12T14:14:08.006Z,61.76
2023-05-12T14:19:01.124Z,68.00
2023-05-12T14:23:51.974Z,60.56
2023-05-12T14:28:44.138Z,60.01
2023-05-12T14:33:33.633Z,65.95
2023-05-12T14:38:23.209Z,57.45
2023-05-12T14:43:13.643Z,56.19
2023-05-12T14:48:06.466Z,75.86
2023-05-12T14:52:58.367Z,74.40
2023-05-12T14:57:48.330Z,72.87
2023-05-12T15:02:38.363Z,70.98
2023-05-12T15:07:34.513Z,59.59
2023-05-12T15:12:24.719Z,58.85
2023-05-12T15:17:14.640Z,59.45
2023-05-12T15:22:04.588Z,59.46
2023-05-12T15:27:07.403Z,58.30
2023-05-12T15:31:57.628Z,58.74
2023-05-12T15:36:49.057Z,56.01
2023-05-12T15:41:39.182Z,57.27
2023-05-12T15:46:32.281Z,56.71
2023-05-12T15:51:24.522Z,57.07
2023-05-12T15:56:14.312Z,53.94
2023-05-12T16:01:05.653Z,54.39
2023-05-12T16:05:59.581Z,54.86
2023-05-12T16:10:49.862Z,55.28
2023-05-12T16:15:39.811Z,53.75
2023-05-12T16:20:29.962Z,53.20
2023-05-12T16:25:22.985Z,54.49
2023-05-12T16:30:16.637Z,67.23
2023-05-12T16:35:08.847Z,71.30
2023-05-12T16:39:58.662Z,72.11
2023-05-12T16:44:51.699Z,72.59
2023-05-12T16:49:41.502Z,73.76
2023-05-12T16:54:33.437Z,73.21
2023-05-12T16:59:23.257Z,73.94
2023-05-12T17:04:15.913Z,75.52
2023-05-12T17:09:05.963Z,75.42
2023-05-12T17:13:56.582Z,72.47
2023-05-12T17:23:42.078Z,64.90
2023-05-12T17:28:33.352Z,83.81
2023-05-12T17:33:23.658Z,96.90
2023-05-12T17:38:13.502Z,99.09
2023-05-12T17:43:06.218Z,100.00
2023-05-12T17:47:56.853Z,96.98
2023-05-12T17:52:48.490Z,96.86
2023-05-12T17:57:38.789Z,95.75
2023-05-12T18:02:33.437Z,94.38
2023-05-12T18:07:23.454Z,94.92
2023-05-12T18:12:14.211Z,92.66
2023-05-12T18:17:04.128Z,91.90
2023-05-12T18:21:56.940Z,97.02
2023-05-12T18:26:47.430Z,97.37
2023-05-12T18:31:37.302Z,97.86
2023-05-12T18:36:27.122Z,93.47
2023-05-12T18:41:19.554Z,96.69
2023-05-12T18:46:09.546Z,96.40
2023-05-12T18:50:59.852Z,100.00
2023-05-12T18:55:52.153Z,100.00
2023-05-12T19:00:44.986Z,100.00
2023-05-12T19:05:39.105Z,100.00
2023-05-12T19:10:30.097Z,100.00
2023-05-12T19:15:21.414Z,100.00
2023-05-12T19:20:15.102Z,100.00
2023-05-12T19:25:06.247Z,100.00
2023-05-12T19:29:57.649Z,100.00
2023-05-12T19:34:47.818Z,100.00
2023-05-12T19:39:42.612Z,100.00
2023-05-12T19:44:36.838Z,100.00
2023-05-12T19:49:26.917Z,100.00
2023-05-12T19:54:16.680Z,100.00
2023-05-12T19:59:09.226Z,100.00
2023-05-12T20:03:59.343Z,100.00
2023-05-12T20:08:49.626Z,100.00
2023-05-12T20:13:39.602Z,99.25
2023-05-12T20:18:32.154Z,99.00
2023-05-12T20:23:24.220Z,97.87
2023-05-12T20:28:14.295Z,98.18
2023-05-12T20:33:04.573Z,98.15
2023-05-12T20:37:57.218Z,98.23
2023-05-12T20:42:51.101Z,98.29
2023-05-12T20:47:41.133Z,98.66
2023-05-12T20:52:31.713Z,100.00
2023-05-12T20:57:24.262Z,100.00
2023-05-12T21:02:14.288Z,100.00
2023-05-12T21:07:04.747Z,100.00
2023-05-12T21:11:54.637Z,100.00
2023-05-12T21:16:47.100Z,100.00
2023-05-12T21:21:37.035Z,100.00
2023-05-12T21:26:26.900Z,100.00
2023-05-12T21:31:16.832Z,100.00
2023-05-12T21:36:10.988Z,100.00
2023-05-12T21:41:01.331Z,100.00
2023-05-12T21:45:51.327Z,100.00
2023-05-12T21:50:41.317Z,100.00
2023-05-12T21:55:33.721Z,100.00
2023-05-12T22:00:24.064Z,100.00
2023-05-12T22:05:14.261Z,100.00
2023-05-12T22:10:05.971Z,100.00
2023-05-12T22:14:58.457Z,100.00
2023-05-12T22:19:50.416Z,100.00
2023-05-12T22:24:40.262Z,100.00
2023-05-12T22:29:30.367Z,100.00
2023-05-12T22:34:23.161Z,100.00
2023-05-12T22:39:13.875Z,100.00
2023-05-12T22:44:03.938Z,100.00
2023-05-12T22:48:53.803Z,100.00
2023-05-12T22:53:46.196Z,100.00
2023-05-12T22:58:36.113Z,100.00
2023-05-12T23:03:26.218Z,100.00
2023-05-12T23:08:16.196Z,100.00
2023-05-12T23:13:08.666Z,100.00
2023-05-12T23:17:58.493Z,100.00
2023-05-12T23:22:48.393Z,100.00
2023-05-12T23:27:38.761Z,100.00
2023-05-12T23:32:31.415Z,100.00
2023-05-12T23:37:22.624Z,100.00
2023-05-12T23:42:13.573Z,100.00
2023-05-12T23:47:03.863Z,100.00
2023-05-12T23:51:56.758Z,100.00
2023-05-12T23:56:47.094Z,100.00
